BWC weather

Brawley Municipal Airport
Brawley, California, United States

Public forecast

Using degrees Fahrenheit for public forecast. Weather courtesy of forecast.io.

Closest aviation weather report (METAR) to Brawley Municipal Airport

Closest report is Imperial County Airport, 10.0 nm (18.6 km) SSW. Retrieved 2019/12/06 15:53 UTC (2 hours ago):

KIPL 061553Z AUTO 24003KT 10SM CLR 11/09 A3018 RMK AO2 SLP221 T01110089

Closest aviation forecast (TAF) to Brawley Municipal Airport

Closest forecast is Imperial County Airport, 10.0 nm (18.6 km) SSW. Retrieved 2019/12/06 12:22 UTC (5 hours ago):

TAF KIPL 061120Z 0612/0712 26003KT P6SM BKN250 FM061800 34004KT P6SM BKN250